Главная страница
METAR-TAF:

METAR-TAF

Аэропорты :

Куньмин Чаншуй

Куньмин, Китай

широта: 25-01N, долгота: 102-41E, высота над уровнем моря: 1892 м

Текущие метеонаблюдения

Эта сводка был подготовлена 16 минут назад, в 10:00 UTC
Ветер 8 Узел от восточно-юго-восточный, изменяющийся между восточно-северо-восточный и юго-восточный
Температура 22°C
Влажность 69%
Давление 1016 hPa
Видимость 10 км и более
небольшая облачность на высоте 2600 фута, мощно-кучевые.
Отдельные облака на высоте 2600 фута

METAR: ZPPP 161000Z 11004MPS 070V130 9999 FEW026TCU SCT026 22/16 Q1016 NOSIG

Время: 18:16 (10:16 UTC)

Прогноз

Эта сводка был подготовлена 9 часа и 1 минут назад, в 01:15 UTC
Прогноз действительный с 16-го 06 UTC до 17-го 06 UTC
Ветер 8 Узел от восточно-юго-восточный
Видимость 10 км и более
Отдельные облака на высоте 2300 фута
Рассеянная облачность на высоте 4000 фута

TAF: ZPPP 160115Z 1606/1706 12004MPS 9999 SCT023 BKN040 TX26/1608Z TN16/1623Z

Метеонаблюдения и прогнозы для более 4000 аэропортов (сводки METAR и TAF).

Имеющиеся станции представлены на карте желтыми и красными точками.

Чтобы увидеть название станции, наведите на нее мышь.

Затем щелкните, чтобы увидеть метеонаблюдения и метеопрогнозы.

Управление картой: чтобы увеличить масштаб, щелкните зеленые кнопки с черным крестиком; чтобы уменьшить масштаб, щелкните зеленую кнопку с тире; для просмотра соседних карт щелкайте зеленые стрелки.


METAR-TAF: